Time;durP1;ratioP1;P1;durP2;ratioP2;P2;SDS_P1;SDS_P2;PMS_P1;PMS_P2;Temp;Humidity;BMP_temperature;BMP_pressure;BME280_temperature;BME280_humidity;BME280_pressure;Samples;Min_cycle;Max_cycle;Signal;HPM_P1;HPM_P2
2022/12/09 00:00:31;;;;;;;;;58.75;43.75;;;;;4.54;100.00;100487.41;5044342;28;45303;-74
2022/12/09 00:02:57;;;;;;;;;56.50;43.75;;;;;4.55;100.00;100481.06;5044763;28;45419;-74
2022/12/09 00:05:23;;;;;;;;;57.75;43.00;;;;;4.64;100.00;100482.19;5043802;28;45525;-74
2022/12/09 00:07:48;;;;;;;;;63.50;46.25;;;;;4.74;100.00;100476.97;5044512;28;46530;-75
2022/12/09 00:10:14;;;;;;;;;45.25;39.25;;;;;4.74;100.00;100479.66;5044456;28;45426;-74
2022/12/09 00:12:39;;;;;;;;;58.50;41.50;;;;;4.60;100.00;100473.50;5043394;28;45243;-74
2022/12/09 00:15:05;;;;;;;;;36.00;33.25;;;;;4.56;100.00;100469.31;5043550;28;45506;-74
2022/12/09 00:17:30;;;;;;;;;63.25;46.50;;;;;4.61;100.00;100468.97;5044633;28;45622;-75
2022/12/09 00:19:55;;;;;;;;;62.00;48.25;;;;;4.60;100.00;100470.78;5038415;28;45872;-75
2022/12/09 00:22:21;;;;;;;;;63.00;44.75;;;;;4.48;100.00;100466.34;5022337;28;45358;-74
2022/12/09 00:24:46;;;;;;;;;54.50;39.75;;;;;4.46;100.00;100470.13;5025068;28;45291;-75
2022/12/09 00:27:11;;;;;;;;;55.00;43.50;;;;;4.50;100.00;100463.56;5039581;28;47843;-75
2022/12/09 00:29:37;;;;;;;;;64.75;49.25;;;;;4.42;100.00;100466.84;5024182;28;45273;-74
2022/12/09 00:32:03;;;;;;;;;52.50;42.00;;;;;4.45;100.00;100463.06;5024546;28;45280;-75
2022/12/09 00:34:28;;;;;;;;;57.75;45.50;;;;;4.43;100.00;100462.31;5024837;28;45482;-74
2022/12/09 00:36:53;;;;;;;;;60.50;47.25;;;;;4.40;100.00;100458.00;5023348;28;48135;-75
2022/12/09 00:39:18;;;;;;;;;54.25;45.00;;;;;4.39;100.00;100464.34;5024245;28;45232;-75
2022/12/09 00:41:44;;;;;;;;;63.25;44.00;;;;;4.42;100.00;100456.06;5024461;28;45513;-75
2022/12/09 00:44:10;;;;;;;;;57.75;44.00;;;;;4.44;100.00;100453.28;5024510;28;45257;-75
2022/12/09 00:46:35;;;;;;;;;61.50;43.00;;;;;4.30;100.00;100449.81;5023952;28;46674;-75
2022/12/09 00:49:03;;;;;;;;;52.25;42.50;;;;;4.39;100.00;100450.91;5023973;28;45376;-75
2022/12/09 00:51:28;;;;;;;;;59.00;48.00;;;;;4.39;100.00;100450.91;5032890;28;45216;-75
2022/12/09 00:53:54;;;;;;;;;56.75;45.75;;;;;4.33;100.00;100443.31;5044318;28;45482;-75
2022/12/09 00:56:25;;;;;;;;;58.00;47.00;;;;;4.24;100.00;100450.25;5042705;28;45831;-75
2022/12/09 00:58:50;;;;;;;;;52.00;42.00;;;;;4.33;100.00;100448.69;5043689;28;45280;-75
2022/12/09 01:01:16;;;;;;;;;49.75;42.75;;;;;4.29;100.00;100452.59;5042497;28;45393;-74
2022/12/09 01:03:41;;;;;;;;;56.00;46.25;;;;;4.27;100.00;100443.78;5044183;28;45322;-75
2022/12/09 01:06:08;;;;;;;;;57.50;42.75;;;;;4.21;100.00;100438.88;5043848;28;45402;-74
2022/12/09 01:08:34;;;;;;;;;56.75;44.00;;;;;4.17;100.00;100430.16;5042318;28;45342;-75
2022/12/09 01:10:59;;;;;;;;;58.25;46.25;;;;;4.21;100.00;100441.56;5043890;28;45808;-75
2022/12/09 01:13:24;;;;;;;;;52.00;43.00;;;;;4.17;100.00;100437.38;5042921;28;45263;-75
2022/12/09 01:15:50;;;;;;;;;54.00;45.00;;;;;4.15;100.00;100439.34;5043823;28;46362;-75
2022/12/09 01:18:15;;;;;;;;;44.75;37.00;;;;;4.17;100.00;100445.44;5042400;28;45280;-75
2022/12/09 01:20:40;;;;;;;;;57.50;42.25;;;;;4.17;100.00;100435.53;5032574;28;45373;-75
2022/12/09 01:23:06;;;;;;;;;58.75;42.00;;;;;4.17;100.00;100429.31;5024073;28;45323;-75
2022/12/09 01:25:32;;;;;;;;;55.00;42.50;;;;;4.20;100.00;100434.47;5023740;28;45343;-75
2022/12/09 01:27:57;;;;;;;;;63.25;42.00;;;;;4.28;100.00;100427.53;5022176;28;45777;-75
2022/12/09 01:30:22;;;;;;;;;58.25;43.25;;;;;4.30;100.00;100432.81;5023655;28;45228;-75
2022/12/09 01:32:48;;;;;;;;;56.75;42.50;;;;;4.32;100.00;100436.22;5022928;28;45462;-74
2022/12/09 01:35:13;;;;;;;;;61.50;43.00;;;;;4.26;100.00;100426.78;5023367;28;46623;-75
2022/12/09 01:37:38;;;;;;;;;48.00;35.50;;;;;4.25;100.00;100426.91;5038162;28;45435;-75
2022/12/09 01:40:07;;;;;;;;;62.00;42.50;;;;;4.32;100.00;100438.91;5043481;28;45457;-75
2022/12/09 01:42:33;;;;;;;;;53.00;42.75;;;;;4.27;100.00;100431.19;5026653;28;45492;-74
2022/12/09 01:45:39;;;;;;;;;53.50;40.50;;;;;4.18;100.00;100429.19;5021891;28;46888;-75
2022/12/09 01:48:10;;;;;;;;;51.50;42.00;;;;;4.18;100.00;100436.41;5010330;28;45333;-75
2022/12/09 01:50:38;;;;;;;;;54.75;41.25;;;;;4.16;100.00;100441.06;5020907;28;45417;-75
2022/12/09 01:53:04;;;;;;;;;58.00;39.00;;;;;4.24;100.00;100441.31;5019106;28;45313;-75
2022/12/09 01:55:30;;;;;;;;;42.75;30.00;;;;;4.17;100.00;100437.38;5039578;28;45260;-75
2022/12/09 01:57:55;;;;;;;;;60.25;46.75;;;;;4.11;100.00;100438.69;5043187;28;45314;-75
2022/12/09 02:00:21;;;;;;;;;57.00;42.50;;;;;4.10;100.00;100436.13;5042756;28;46033;-75
2022/12/09 02:02:48;;;;;;;;;54.00;39.50;;;;;4.10;100.00;100436.13;5042222;28;45431;-75
2022/12/09 02:05:14;;;;;;;;;53.25;41.50;;;;;4.06;100.00;100440.88;5042687;28;45338;-75
2022/12/09 02:07:40;;;;;;;;;63.50;43.00;;;;;4.03;100.00;100430.34;5042855;28;45293;-74
2022/12/09 02:10:11;;;;;;;;;65.75;45.25;;;;;4.03;100.00;100434.84;5042626;28;45421;-74
2022/12/09 02:12:46;;;;;;;;;68.75;47.75;;;;;4.00;100.00;100425.22;5032397;28;45518;-75
2022/12/09 02:15:14;;;;;;;;;56.50;41.50;;;;;4.02;100.00;100438.53;5041204;28;46539;-75
2022/12/09 02:17:47;;;;;;;;;55.75;40.00;;;;;4.12;100.00;100432.34;5042618;28;45321;-75
2022/12/09 02:20:19;;;;;;;;;50.50;39.50;;;;;4.15;100.00;100425.91;5036781;28;45241;-74
2022/12/09 02:22:49;;;;;;;;;56.50;40.25;;;;;4.07;100.00;100423.78;5021959;28;45268;-75
2022/12/09 02:25:34;;;;;;;;;58.75;43.75;;;;;3.97;100.00;100427.25;5024979;28;47042;-75
2022/12/09 02:28:35;;;;;;;;;58.50;43.25;;;;;3.94;100.00;100424.81;5039125;28;45330;-75
2022/12/09 02:31:07;;;;;;;;;55.00;42.00;;;;;3.92;100.00;100420.41;5041187;28;45377;-75
2022/12/09 02:33:51;;;;;;;;;50.25;38.75;;;;;3.96;100.00;100425.53;5043129;28;45382;-75
2022/12/09 02:36:19;;;;;;;;;58.75;38.75;;;;;3.89;100.00;100425.13;5042314;28;45403;-75
2022/12/09 02:38:47;;;;;;;;;47.50;39.00;;;;;3.84;100.00;100428.19;5042534;28;45253;-75
2022/12/09 02:41:18;;;;;;;;;38.25;37.00;;;;;3.72;100.00;100426.41;5041078;28;45332;-74
2022/12/09 02:43:48;;;;;;;;;53.50;40.75;;;;;3.67;100.00;100422.31;5042958;28;45234;-75
2022/12/09 02:46:17;;;;;;;;;59.25;41.50;;;;;3.55;100.00;100426.78;5039398;28;48226;-75
2022/12/09 02:48:50;;;;;;;;;39.50;33.75;;;;;3.57;100.00;100418.59;5044573;28;45307;-75
2022/12/09 02:51:19;;;;;;;;;32.00;28.75;;;;;3.56;100.00;100423.13;5044707;28;45363;-74
2022/12/09 02:54:03;;;;;;;;;40.50;34.50;;;;;3.37;100.00;100418.22;5046323;28;45303;-74
2022/12/09 02:56:29;;;;;;;;;34.00;32.50;;;;;3.33;100.00;100427.47;5045972;28;45208;-75
2022/12/09 02:58:54;;;;;;;;;40.25;28.25;;;;;3.17;100.00;100409.88;5045590;28;45375;-75
2022/12/09 03:01:45;;;;;;;;;39.75;30.50;;;;;3.14;100.00;100422.53;5045745;28;45246;-74
2022/12/09 03:04:18;;;;;;;;;42.75;31.75;;;;;3.32;100.00;100416.84;5044780;28;45520;-74
2022/12/09 03:06:50;;;;;;;;;33.75;30.25;;;;;3.25;100.00;100418.25;5045413;28;45906;-75
2022/12/09 03:09:24;;;;;;;;;37.50;29.50;;;;;3.16;100.00;100418.88;5044231;28;45466;-75
2022/12/09 03:11:51;;;;;;;;;47.50;33.75;;;;;3.18;100.00;100416.97;5045521;28;45499;-75
2022/12/09 03:14:32;;;;;;;;;51.50;40.25;;;;;3.10;100.00;100404.09;5046001;28;45579;-74
2022/12/09 03:17:16;;;;;;;;;32.75;32.00;;;;;3.20;100.00;100409.66;5043894;28;47465;-75
2022/12/09 03:19:49;;;;;;;;;30.75;26.75;;;;;3.26;100.00;100403.84;5041643;28;45687;-75
2022/12/09 03:22:18;;;;;;;;;44.25;33.75;;;;;3.17;100.00;100412.56;5025523;28;45359;-74
2022/12/09 03:25:05;;;;;;;;;38.75;32.00;;;;;3.17;100.00;100405.38;5025935;28;45344;-75
2022/12/09 03:27:36;;;;;;;;;33.50;28.00;;;;;3.12;100.00;100403.03;5024106;28;45494;-74
2022/12/09 03:30:04;;;;;;;;;35.75;27.75;;;;;3.18;100.00;100399.03;5030892;28;45276;-75
2022/12/09 03:32:30;;;;;;;;;43.00;34.75;;;;;3.22;100.00;100405.88;5044257;28;45373;-75
2022/12/09 03:35:03;;;;;;;;;45.75;35.75;;;;;3.03;100.00;100409.03;5045848;28;45553;-74
2022/12/09 03:37:30;;;;;;;;;40.00;34.50;;;;;2.98;100.00;100394.25;5043478;28;46831;-74
2022/12/09 03:39:58;;;;;;;;;36.00;32.75;;;;;3.06;100.00;100392.72;5044998;28;45370;-74
2022/12/09 03:42:30;;;;;;;;;41.50;36.00;;;;;3.08;100.00;100385.41;5044997;28;45504;-74
2022/12/09 03:45:04;;;;;;;;;49.00;31.75;;;;;3.14;100.00;100392.19;5043663;28;45266;-75
2022/12/09 03:47:30;;;;;;;;;46.00;36.00;;;;;3.18;100.00;100400.84;5044670;28;45311;-75
2022/12/09 03:49:56;;;;;;;;;48.50;35.75;;;;;3.10;100.00;100394.22;5043467;28;45924;-75
2022/12/09 03:52:30;;;;;;;;;55.25;35.25;;;;;2.98;100.00;100395.09;5044843;28;45287;-75
2022/12/09 03:55:01;;;;;;;;;56.00;39.75;;;;;2.95;100.00;100389.94;5045517;28;45334;-75
2022/12/09 03:57:28;;;;;;;;;39.00;30.50;;;;;2.87;100.00;100380.72;5043066;28;45343;-74
2022/12/09 03:59:59;;;;;;;;;43.75;32.50;;;;;2.92;100.00;100376.72;5044687;28;45432;-74
2022/12/09 04:02:25;;;;;;;;;45.50;32.50;;;;;2.96;100.00;100380.94;5043602;28;45427;-74
2022/12/09 04:04:51;;;;;;;;;43.50;31.25;;;;;2.91;100.00;100382.22;5043972;28;45367;-74
2022/12/09 04:07:16;;;;;;;;;45.50;37.00;;;;;2.82;100.00;100374.81;5044461;28;45880;-74
2022/12/09 04:09:42;;;;;;;;;40.75;35.00;;;;;2.81;100.00;100371.28;5043408;28;45386;-75
2022/12/09 04:12:07;;;;;;;;;35.25;30.50;;;;;2.84;100.00;100376.44;5044775;28;45365;-75
2022/12/09 04:14:33;;;;;;;;;46.25;33.50;;;;;2.79;100.00;100372.34;5043758;28;45349;-75
2022/12/09 04:16:58;;;;;;;;;47.00;36.50;;;;;2.83;100.00;100374.72;5044613;28;45274;-75
2022/12/09 04:19:23;;;;;;;;;27.00;23.50;;;;;2.84;100.00;100375.56;5035205;28;45621;-74
2022/12/09 04:21:49;;;;;;;;;43.50;35.75;;;;;2.94;100.00;100372.13;5043982;28;45676;-75
2022/12/09 04:24:14;;;;;;;;;45.50;32.25;;;;;2.99;100.00;100366.44;5043705;28;45497;-75
2022/12/09 04:26:39;;;;;;;;;41.25;30.75;;;;;2.86;100.00;100363.75;5044542;28;46300;-75
2022/12/09 04:29:05;;;;;;;;;44.50;31.25;;;;;2.78;100.00;100363.44;5044487;28;45434;-75
2022/12/09 04:31:31;;;;;;;;;41.50;32.50;;;;;2.72;100.00;100371.91;5042770;28;45599;-74
2022/12/09 04:33:56;;;;;;;;;43.25;28.25;;;;;2.68;100.00;100363.25;5044750;28;45520;-75
2022/12/09 04:36:22;;;;;;;;;35.50;31.75;;;;;2.80;100.00;100369.56;5044005;28;45464;-75
2022/12/09 04:38:47;;;;;;;;;35.75;24.75;;;;;2.71;100.00;100365.69;5042991;28;45322;-74
2022/12/09 04:41:14;;;;;;;;;35.25;32.25;;;;;2.77;100.00;100363.56;5044151;28;45160;-74
2022/12/09 04:43:39;;;;;;;;;37.00;32.25;;;;;2.86;100.00;100363.75;5043493;28;45296;-74
2022/12/09 04:46:11;;;;;;;;;40.75;24.50;;;;;2.82;100.00;100367.63;5043881;28;46205;-74
2022/12/09 04:48:36;;;;;;;;;47.25;30.50;;;;;2.79;100.00;100362.47;5040185;28;45341;-74
2022/12/09 04:51:02;;;;;;;;;46.75;39.50;;;;;2.64;100.00;100352.81;5044344;28;45144;-75
2022/12/09 04:53:28;;;;;;;;;32.25;29.75;;;;;2.73;100.00;100376.31;5044900;28;45279;-74
2022/12/09 04:56:01;;;;;;;;;30.75;25.00;;;;;2.72;100.00;100379.97;5044001;28;46625;-74
2022/12/09 04:58:27;;;;;;;;;42.25;34.25;;;;;2.77;100.00;100377.84;5042299;28;45283;-74
2022/12/09 05:00:52;;;;;;;;;50.00;33.50;;;;;2.69;100.00;100369.47;5042315;28;45274;-74
2022/12/09 05:03:18;;;;;;;;;43.25;37.75;;;;;2.65;100.00;100381.34;5044275;28;45401;-73
2022/12/09 05:05:43;;;;;;;;;34.00;27.75;;;;;2.57;100.00;100363.13;5043906;28;45374;-74
2022/12/09 05:08:08;;;;;;;;;35.00;29.00;;;;;2.58;100.00;100369.34;5041871;28;45287;-74
2022/12/09 05:10:33;;;;;;;;;43.00;31.75;;;;;2.61;100.00;100375.38;5042475;28;45345;-74
2022/12/09 05:12:59;;;;;;;;;34.75;25.25;;;;;2.54;100.00;100368.72;5043961;28;45617;-74
2022/12/09 05:15:24;;;;;;;;;36.00;33.00;;;;;2.54;100.00;100365.16;5043046;28;45575;-75
2022/12/09 05:17:50;;;;;;;;;44.00;29.25;;;;;2.42;100.00;100360.63;5039109;28;45361;-74
2022/12/09 05:20:15;;;;;;;;;28.25;21.75;;;;;2.54;100.00;100359.81;5046216;28;45344;-75
2022/12/09 05:22:40;;;;;;;;;32.25;31.75;;;;;2.54;100.00;100362.50;5037291;28;45528;-74
2022/12/09 05:25:06;;;;;;;;;35.00;26.50;;;;;2.41;100.00;100372.34;5041892;28;48501;-75
2022/12/09 05:27:31;;;;;;;;;29.75;23.75;;;;;2.31;100.00;100375.66;5041784;28;45467;-75
2022/12/09 05:29:57;;;;;;;;;33.50;21.00;;;;;2.32;100.00;100371.16;5043615;28;45406;-75
2022/12/09 05:32:22;;;;;;;;;40.50;27.00;;;;;2.40;100.00;100376.84;5042201;28;45536;-75
2022/12/09 05:34:47;;;;;;;;;34.50;31.00;;;;;2.41;100.00;100378.53;5043025;28;46007;-76
2022/12/09 05:37:16;;;;;;;;;36.00;27.00;;;;;2.40;100.00;100381.34;5041439;28;45289;-74
2022/12/09 05:39:41;;;;;;;;;36.00;29.75;;;;;2.49;100.00;100375.34;5038156;28;45236;-74
2022/12/09 05:42:07;;;;;;;;;29.50;23.50;;;;;2.50;100.00;100385.09;5035384;28;45269;-74
2022/12/09 05:44:32;;;;;;;;;48.00;30.25;;;;;2.57;100.00;100384.56;5041505;28;45506;-77
2022/12/09 05:46:57;;;;;;;;;28.50;23.75;;;;;2.61;100.00;100383.41;5043175;28;45206;-75
2022/12/09 05:49:23;;;;;;;;;29.75;23.50;;;;;2.66;100.00;100378.56;5043246;28;45304;-75
2022/12/09 05:51:48;;;;;;;;;31.00;27.50;;;;;2.69;100.00;100377.50;5043441;28;45418;-75
2022/12/09 05:54:14;;;;;;;;;34.00;26.25;;;;;2.75;100.00;100382.44;5041626;28;48238;-74
2022/12/09 05:56:39;;;;;;;;;35.00;26.00;;;;;2.77;100.00;100385.03;5042538;28;46492;-75
2022/12/09 05:59:05;;;;;;;;;27.00;20.75;;;;;2.78;100.00;100392.13;5042843;28;45313;-76
2022/12/09 06:02:10;;;;;;;;;30.50;27.00;;;;;2.71;100.00;100392.50;5031017;28;45364;-75
2022/12/09 06:04:56;;;;;;;;;31.50;26.00;;;;;2.71;100.00;100395.19;5042222;28;45445;-74
2022/12/09 06:07:21;;;;;;;;;37.75;29.25;;;;;2.63;100.00;100402.09;5042530;28;45518;-75
2022/12/09 06:09:47;;;;;;;;;29.50;26.00;;;;;2.62;100.00;100401.22;5042303;28;45363;-75
2022/12/09 06:12:13;;;;;;;;;30.25;25.50;;;;;2.53;100.00;100395.63;5041139;28;45541;-74
2022/12/09 06:14:38;;;;;;;;;34.50;26.00;;;;;2.61;100.00;100401.31;5040128;28;46545;-74
2022/12/09 06:17:03;;;;;;;;;32.75;23.75;;;;;2.67;100.00;100406.25;5057670;28;45219;-74
2022/12/09 06:19:29;;;;;;;;;28.50;27.25;;;;;2.67;100.00;100417.84;5040418;28;45511;-75
2022/12/09 06:21:54;;;;;;;;;27.25;23.00;;;;;2.57;100.00;100399.81;5042108;28;45331;-75
2022/12/09 06:24:19;;;;;;;;;31.00;29.25;;;;;2.69;100.00;100415.06;5041829;28;46735;-77
2022/12/09 06:26:45;;;;;;;;;34.50;28.00;;;;;2.67;100.00;100417.84;5040653;28;45441;-74
2022/12/09 06:29:10;;;;;;;;;34.00;29.50;;;;;2.56;100.00;100414.16;5040405;28;45339;-74
2022/12/09 06:31:36;;;;;;;;;34.50;26.50;;;;;2.49;100.00;100416.41;5042700;28;45501;-74
2022/12/09 06:34:01;;;;;;;;;36.00;25.25;;;;;2.36;100.00;100418.22;5042108;28;46300;-74
2022/12/09 06:36:29;;;;;;;;;43.25;31.50;;;;;2.24;100.00;100411.88;5041644;28;45223;-76
2022/12/09 06:38:55;;;;;;;;;39.75;30.75;;;;;2.25;100.00;100420.78;5040672;28;45350;-76
2022/12/09 06:41:21;;;;;;;;;29.00;27.25;;;;;2.36;100.00;100410.19;5037376;28;45326;-75
2022/12/09 06:43:46;;;;;;;;;36.75;25.00;;;;;2.49;100.00;100424.47;5039846;28;45382;-75
2022/12/09 06:46:17;;;;;;;;;31.75;24.00;;;;;2.42;100.00;100411.59;5040010;28;46036;-76
2022/12/09 06:48:43;;;;;;;;;37.00;27.25;;;;;2.41;100.00;100415.25;5037438;28;45338;-75
2022/12/09 06:51:09;;;;;;;;;30.00;23.50;;;;;2.39;100.00;100406.44;5037198;28;45465;-75
2022/12/09 06:53:34;;;;;;;;;31.00;30.50;;;;;2.38;100.00;100404.72;5035984;28;45473;-74
2022/12/09 06:56:02;;;;;;;;;31.25;26.00;;;;;2.42;100.00;100400.84;5039969;28;45658;-74
2022/12/09 06:58:28;;;;;;;;;33.25;24.50;;;;;2.33;100.00;100413.94;5037968;28;45417;-75
2022/12/09 07:00:53;;;;;;;;;30.25;26.25;;;;;2.12;100.00;100403.81;5057217;28;45286;-77
2022/12/09 07:03:19;;;;;;;;;20.00;13.00;;;;;2.07;100.00;100405.94;5042018;28;45561;-76
2022/12/09 07:05:44;;;;;;;;;27.50;22.50;;;;;2.19;100.00;100403.28;5042001;28;45288;-75
2022/12/09 07:08:09;;;;;;;;;39.75;27.50;;;;;2.22;100.00;100405.75;5039970;28;45722;-76
2022/12/09 07:10:35;;;;;;;;;24.00;17.00;;;;;2.12;100.00;100403.81;5057657;28;45566;-75
2022/12/09 07:13:01;;;;;;;;;34.00;29.50;;;;;1.98;100.00;100407.41;5041506;28;45589;-76
2022/12/09 07:15:26;;;;;;;;;40.50;31.00;;;;;2.11;100.00;100408.31;5041939;28;45245;-74
2022/12/09 07:17:51;;;;;;;;;10.75;6.75;;;;;2.20;100.00;100422.91;5045008;28;45192;-76
2022/12/09 07:20:17;;;;;;;;;35.50;32.75;;;;;2.00;100.00;100418.88;5044849;28;45614;-75
2022/12/09 07:22:42;;;;;;;;;38.00;30.50;;;;;2.02;100.00;100422.34;5034846;28;45332;-74
2022/12/09 07:25:08;;;;;;;;;40.00;30.75;;;;;2.05;100.00;100419.44;5036613;28;45998;-76
2022/12/09 07:27:33;;;;;;;;;35.50;30.50;;;;;2.16;100.00;100416.91;5035084;28;45504;-75
2022/12/09 07:29:58;;;;;;;;;30.25;26.50;;;;;2.35;100.00;100424.56;5041218;28;45370;-77
2022/12/09 07:32:24;;;;;;;;;35.25;27.75;;;;;2.40;100.00;100425.13;5041013;28;46964;-75
2022/12/09 07:34:49;;;;;;;;;39.75;32.00;;;;;2.21;100.00;100420.13;5043196;28;45259;-74
2022/12/09 07:37:15;;;;;;;;;34.00;26.50;;;;;2.13;100.00;100422.47;5040245;28;45385;-75
2022/12/09 07:39:40;;;;;;;;;41.00;30.75;;;;;2.06;100.00;100420.28;5043801;28;45249;-75
2022/12/09 07:42:06;;;;;;;;;37.00;29.00;;;;;2.15;100.00;100425.91;5042941;28;47434;-75
2022/12/09 07:44:31;;;;;;;;;38.00;31.00;;;;;2.07;100.00;100422.88;5044332;28;45329;-75
2022/12/09 07:46:56;;;;;;;;;34.50;26.75;;;;;2.19;100.00;100439.97;5043380;28;45326;-75
2022/12/09 07:49:23;;;;;;;;;37.50;32.00;;;;;2.29;100.00;100439.22;5045394;28;45433;-74
2022/12/09 07:51:49;;;;;;;;;49.75;35.75;;;;;2.25;100.00;100439.56;5042779;28;46392;-75
2022/12/09 07:54:17;;;;;;;;;37.25;26.50;;;;;2.34;100.00;100442.44;5039785;28;45350;-76
2022/12/09 07:56:43;;;;;;;;;37.75;28.75;;;;;2.38;100.00;100442.25;5024747;28;45288;-74
2022/12/09 07:59:11;;;;;;;;;37.50;25.75;;;;;2.26;100.00;100422.50;5044626;28;45436;-75
2022/12/09 08:01:37;;;;;;;;;39.75;32.75;;;;;2.28;100.00;100448.22;5044226;28;45418;-76
2022/12/09 08:04:04;;;;;;;;;39.75;29.25;;;;;2.25;100.00;100432.38;5043867;28;45331;-76
2022/12/09 08:06:30;;;;;;;;;34.00;29.50;;;;;2.37;100.00;100441.41;5042574;28;45267;-74
2022/12/09 08:09:00;;;;;;;;;42.25;30.00;;;;;2.37;100.00;100444.06;5043129;28;45426;-74
2022/12/09 08:11:28;;;;;;;;;49.75;37.25;;;;;2.31;100.00;100448.03;5044080;28;46604;-76
2022/12/09 08:13:59;;;;;;;;;47.50;33.25;;;;;2.38;100.00;100447.63;5042885;28;45329;-74
2022/12/09 08:16:25;;;;;;;;;37.50;30.75;;;;;2.45;100.00;100448.91;5041526;28;45369;-74
2022/12/09 08:18:52;;;;;;;;;39.25;30.50;;;;;2.37;100.00;100436.03;5044623;28;45542;-75
2022/12/09 08:21:26;;;;;;;;;39.75;36.00;;;;;2.42;100.00;100446.44;5028161;28;45415;-75
2022/12/09 08:23:54;;;;;;;;;41.50;29.75;;;;;2.51;100.00;100437.78;5024131;28;45441;-77
2022/12/09 08:26:21;;;;;;;;;44.50;34.00;;;;;2.48;100.00;100444.22;5024899;28;45234;-76
2022/12/09 08:28:48;;;;;;;;;34.00;29.75;;;;;2.43;100.00;100446.34;5024976;28;45481;-75
2022/12/09 08:31:16;;;;;;;;;42.50;35.75;;;;;2.40;100.00;100437.66;5024037;28;45573;-77
2022/12/09 08:33:42;;;;;;;;;34.75;30.50;;;;;2.31;100.00;100442.69;5022682;28;45351;-74
2022/12/09 08:36:25;;;;;;;;;43.00;36.00;;;;;2.42;100.00;100444.63;5024196;28;45338;-76
2022/12/09 08:38:50;;;;;;;;;39.25;35.00;;;;;2.55;100.00;100428.56;5024959;28;45273;-75
2022/12/09 08:41:41;;;;;;;;;42.25;34.00;;;;;2.54;100.00;100445.63;5023063;28;47764;-76
2022/12/09 08:44:15;;;;;;;;;53.25;41.25;;;;;2.24;100.00;100430.66;5023760;28;45327;-75
2022/12/09 08:46:44;;;;;;;;;29.00;27.50;;;;;2.16;100.00;100449.06;5023377;28;45323;-75
2022/12/09 08:49:10;;;;;;;;;40.75;34.00;;;;;2.06;100.00;100449.75;5041234;28;45371;-75
2022/12/09 08:51:36;;;;;;;;;42.50;34.25;;;;;2.19;100.00;100450.69;5044011;28;46607;-75
2022/12/09 08:54:02;;;;;;;;;42.00;39.75;;;;;2.26;100.00;100450.19;5039342;28;45300;-76
2022/12/09 08:56:28;;;;;;;;;35.50;31.75;;;;;2.24;100.00;100452.09;5035192;28;45316;-75
2022/12/09 08:58:54;;;;;;;;;55.50;41.00;;;;;2.41;100.00;100458.16;5044263;28;45177;-73
2022/12/09 09:01:23;;;;;;;;;52.50;41.75;;;;;2.44;100.00;100448.06;5043705;28;45220;-74
2022/12/09 09:03:49;;;;;;;;;49.00;38.00;;;;;2.47;100.00;100457.72;5043714;28;45370;-74
2022/12/09 09:06:16;;;;;;;;;61.25;44.25;;;;;2.46;100.00;100450.66;5043760;28;45342;-75
2022/12/09 09:08:41;;;;;;;;;49.25;37.75;;;;;2.57;100.00;100448.06;5043968;28;45285;-76
2022/12/09 09:11:09;;;;;;;;;36.75;29.25;;;;;2.56;100.00;100457.06;5043439;28;45278;-75
2022/12/09 09:13:36;;;;;;;;;36.75;28.75;;;;;2.61;100.00;100460.31;5037190;28;45203;-75
2022/12/09 09:16:02;;;;;;;;;46.50;38.50;;;;;2.75;100.00;100460.25;5031304;28;45320;-75
2022/12/09 09:18:27;;;;;;;;;56.75;41.50;;;;;2.68;100.00;100454.44;5042378;28;45247;-76
2022/12/09 09:20:56;;;;;;;;;57.50;44.75;;;;;2.45;100.00;100454.28;5030999;28;46251;-73
2022/12/09 09:23:21;;;;;;;;;51.25;43.50;;;;;2.45;100.00;100455.16;5023369;28;45301;-76
2022/12/09 09:25:47;;;;;;;;;47.75;40.00;;;;;2.55;100.00;100458.94;5043441;28;45388;-76
2022/12/09 09:28:12;;;;;;;;;43.00;38.25;;;;;2.58;100.00;100444.44;5042279;28;45298;-75
2022/12/09 09:30:38;;;;;;;;;46.25;38.50;;;;;2.78;100.00;100453.81;5030868;28;46615;-76
2022/12/09 09:33:03;;;;;;;;;43.00;34.25;;;;;2.90;100.00;100453.81;5023286;28;45254;-75
2022/12/09 09:35:28;;;;;;;;;32.75;26.00;;;;;2.77;100.00;100446.72;5022402;28;45753;-77
2022/12/09 09:37:54;;;;;;;;;44.00;35.75;;;;;2.78;100.00;100449.28;5023553;28;45456;-75
2022/12/09 09:40:22;;;;;;;;;48.00;38.50;;;;;2.57;100.00;100459.66;5023377;28;46464;-75
2022/12/09 09:42:50;;;;;;;;;36.00;30.00;;;;;2.46;100.00;100466.72;5023342;28;45151;-74
2022/12/09 09:45:21;;;;;;;;;51.50;38.00;;;;;2.41;100.00;100463.50;5023116;28;45357;-75
2022/12/09 09:48:01;;;;;;;;;53.50;44.00;;;;;2.40;100.00;100461.78;5023727;28;45398;-75
2022/12/09 09:50:47;;;;;;;;;51.50;38.50;;;;;2.58;100.00;100461.38;5023347;28;45550;-75
2022/12/09 09:53:24;;;;;;;;;63.25;44.50;;;;;2.91;100.00;100466.25;5043267;28;45321;-76
2022/12/09 09:56:24;;;;;;;;;56.00;40.50;;;;;3.03;100.00;100462.72;5043223;28;45462;-76
2022/12/09 09:59:17;;;;;;;;;62.25;47.75;;;;;3.14;100.00;100454.75;5043161;28;45326;-75
2022/12/09 10:01:51;;;;;;;;;45.00;36.75;;;;;3.11;100.00;100460.34;5042851;28;46071;-75
2022/12/09 10:05:01;;;;;;;;;46.50;37.00;;;;;3.14;100.00;100461.97;5042720;28;45181;-75
2022/12/09 10:07:39;;;;;;;;;44.00;35.50;;;;;3.18;100.00;100454.53;5036674;28;45401;-75
2022/12/09 10:10:32;;;;;;;;;50.25;37.50;;;;;3.31;100.00;100458.06;5039794;28;45582;-75
2022/12/09 10:13:28;;;;;;;;;57.25;40.25;;;;;3.48;100.00;100463.09;5041373;28;48146;-75
2022/12/09 10:15:57;;;;;;;;;51.75;40.00;;;;;3.49;100.00;100459.44;5041472;28;45251;-76
2022/12/09 10:18:37;;;;;;;;;45.75;28.75;;;;;3.35;100.00;100435.41;5041572;28;45273;-74
2022/12/09 10:21:15;;;;;;;;;38.00;30.00;;;;;3.27;100.00;100440.47;5036702;28;45290;-74
2022/12/09 10:23:41;;;;;;;;;39.50;36.25;;;;;3.18;100.00;100438.44;5042285;28;46509;-75
2022/12/09 10:26:15;;;;;;;;;43.50;39.75;;;;;3.22;100.00;100440.78;5042397;28;45173;-74
2022/12/09 10:28:46;;;;;;;;;31.75;29.75;;;;;3.36;100.00;100437.13;5042806;28;45390;-76
2022/12/09 10:31:11;;;;;;;;;43.00;31.00;;;;;3.54;100.00;100435.78;5041132;28;45465;-75
2022/12/09 10:33:38;;;;;;;;;39.50;35.50;;;;;3.66;100.00;100434.88;5040536;28;47052;-74
2022/12/09 10:36:06;;;;;;;;;26.25;19.50;;;;;3.67;100.00;100428.56;5040961;28;45282;-75
2022/12/09 10:38:36;;;;;;;;;48.50;41.75;;;;;3.66;100.00;100429.50;5042589;28;45168;-75
2022/12/09 10:43:33;;;;;;;;;44.50;38.50;;;;;3.78;100.00;100411.66;5042565;28;45449;-75
2022/12/09 10:44:24;;;;;;;;;44.50;38.50;;;;;4.01;100.00;100416.19;5041821;28;46007;-74
2022/12/09 10:47:04;;;;;;;;;59.25;42.50;;;;;4.03;100.00;100416.03;5042260;28;45275;-76
2022/12/09 10:49:30;;;;;;;;;42.75;28.25;;;;;3.86;100.00;100414.63;5028247;28;45228;-75
2022/12/09 10:51:56;;;;;;;;;42.50;38.75;;;;;3.64;100.00;100422.56;5038219;28;45268;-75
2022/12/09 10:54:31;;;;;;;;;47.50;38.00;;;;;3.85;100.00;100408.41;5042360;28;46738;-76
2022/12/09 10:57:23;;;;;;;;;47.75;39.00;;;;;3.89;100.00;100409.88;5042682;28;45460;-76
2022/12/09 11:00:22;;;;;;;;;44.50;34.50;;;;;3.97;100.00;100420.06;5042026;28;45228;-75
2022/12/09 11:02:50;;;;;;;;;39.75;31.25;;;;;3.69;100.00;100407.81;5043096;28;45223;-74
2022/12/09 11:05:27;;;;;;;;;51.50;32.75;;;;;3.69;100.00;100407.81;5042471;28;45442;-75
2022/12/09 11:07:56;;;;;;;;;56.25;42.50;;;;;3.45;100.00;100399.72;5044610;28;45362;-76
2022/12/09 11:10:24;;;;;;;;;33.00;29.00;;;;;3.41;100.00;100394.69;5032269;28;45231;-76
2022/12/09 11:12:53;;;;;;;;;33.50;28.25;;;;;3.60;100.00;100389.69;5041796;28;45580;-74
2022/12/09 11:15:24;;;;;;;;;42.25;34.00;;;;;3.62;100.00;100392.25;5044817;28;46514;-76
2022/12/09 11:18:03;;;;;;;;;55.50;41.00;;;;;3.42;100.00;100391.91;5045543;28;45372;-75